Flight Track Log - Related Links

Times and Time Zones

All times are in EDT time to prevent confusion due to time zone crossing. See the TCF5970 flight status page for this flight to view local times or setup timezone preferences in your user account.

Time Position Orientation Groundspeed Altitude Reporting Facility
EDT Latitude Longitude Course Direction KTS MPH feet Rate Location/Type
Sat 01:11:17 PM 43.1103 -89.3292 128° Southeast 190 219 2,600  Level Chicago Center
Sat 01:12:19 PM 43.0719 -89.2619 128° Southeast 184 212 5,000 2,661 Climbing Chicago Center
Sat 01:13:21 PM 43.0194 -89.2000 139° Southeast 240 276 8,100 2,952 Climbing Chicago Center
Sat 01:14:23 PM 42.9497 -89.1614 158° South 268 308 11,100 2,516 Climbing Chicago Center
Sat 01:15:25 PM 42.8719 -89.1175 158° South 302 348 13,300 2,488 Climbing Chicago Center
Sat 01:16:26 PM 42.8353 -88.9953 112° Southeast 361 415 16,200 2,293 Climbing Chicago Center
Sat 01:17:28 PM 42.8394 -88.8486 88° East 386 444 18,000 2,323 Climbing Chicago Center
Sat 01:18:30 PM 42.8444 -88.6619 88° East 408 470 21,000 2,468 Climbing Chicago Center
Sat 01:19:32 PM 42.8489 -88.5031 88° East 416 479 23,100 1,887 Climbing Chicago Center
Sat 01:20:34 PM 42.8672 -88.3389 81° East 434 499 24,900 1,694 Climbing Chicago Center
Sat 01:21:36 PM 42.9036 -88.1778 73° East 446 513 26,600 1,561 Climbing Chicago Center
Sat 01:22:37 PM 42.9417 -88.0147 72° East 451 519 28,100 1,561 Climbing Chicago Center
Sat 01:23:39 PM 42.9872 -87.8117 73° East 467 537 29,800 1,452 Climbing Chicago Center
Sat 01:24:41 PM 43.0264 -87.6392 73° East 476 548 31,100 1,113 Climbing Chicago Center
Sat 01:25:43 PM 43.0664 -87.4642 73° East 485 558 32,100 919 Climbing Chicago Center
Sat 01:26:45 PM 43.1006 -87.3056 74° East 487 560 33,000 439 Climbing Chicago Center
Sat 01:27:46 PM 43.1478 -87.0922 73° East 489 563 33,000  Level Chicago Center
Sat 01:28:48 PM 43.1894 -86.9047 73° East 512 589 33,000  Level Chicago Center
Sat 01:29:50 PM 43.2072 -86.7092 83° East 520 598 33,000 -677 Level Chicago Center
Sat 01:30:52 PM 43.2133 -86.5128 87° East 517 595 31,600 -1,317 Descending Chicago Center
Sat 01:31:53 PM 43.2206 -86.3206 87° East 507 583 30,300 -1,268 Descending Chicago Center
Sat 01:32:55 PM 43.2258 -86.1214 88° East 513 590 29,000 -1,306 Descending Chicago Center
Sat 01:33:57 PM 43.2319 -85.9233 88° East 513 590 27,600 -1,306 Descending Chicago Center
Sat 01:34:59 PM 43.2361 -85.7297 88° East 505 581 26,300 -1,268 Descending Chicago Center
Sat 01:36:00 PM 43.2403 -85.5425 88° East 491 565 25,000 -1,366 Descending Chicago Center
Sat 01:37:02 PM 43.2458 -85.3222 88° East 481 554 23,500 -968 Descending Chicago Center
Sat 01:38:04 PM 43.2333 -85.1428 95° East 477 549 23,000 -242 Descending Chicago Center
Sat 01:39:06 PM 43.2008 -84.9642 104° East 482 555 23,000  Level Chicago Center
Sat 01:40:07 PM 43.1669 -84.7864 105° East 482 555 23,000 -976 Level Chicago Center
Sat 01:41:09 PM 43.1225 -84.6167 110° East 472 543 21,000 -2,323 Descending Chicago Center
Sat 01:42:11 PM 43.0611 -84.4769 121° Southeast 429 494 18,200 -2,613 Descending Chicago Center
Sat 01:43:13 PM 42.9958 -84.3533 126° Southeast 415 478 15,600 -1,805 Descending Chicago Center
Sat 01:44:14 PM 42.9592 -84.2089 109° East 405 466 14,500 -977 Descending Chicago Center
Sat 01:45:22 PM 42.9097 -84.0264 110° East 397 457 13,500 -800 Descending Cleveland Center
Sat 01:45:44 PM 42.8992 -83.9764 106° East 398 458 13,300 -689 Descending Cleveland Center
Sat 01:46:23 PM 42.8753 -83.8844 109° East 389 448 12,800 -774 Descending Cleveland Center
Sat 01:46:46 PM 42.8647 -83.8389 108° East 384 442 12,500 -689 Descending Cleveland Center
Sat 01:47:24 PM 42.8375 -83.7561 114° Southeast 314 361 12,100 -492 Descending Cleveland Center
Sat 01:47:47 PM 42.8231 -83.7342 132° Southeast 314 361 12,000 -787 Descending Cleveland Center
Sat 01:48:25 PM 42.7669 -83.6944 153° Southeast 296 341 11,300 -871 Descending Cleveland Center
Sat 01:48:49 PM 42.7475 -83.6819 155° Southeast 306 352 11,100 -982 Descending Cleveland Center
Sat 01:49:20 PM 42.6992 -83.6531 156° South 296 341 10,400 -968 Descending Cleveland Center
Sat 01:49:51 PM 42.6733 -83.6378 156° South 294 338 10,100 -1,065 Descending Cleveland Center
Sat 01:50:22 PM 42.6275 -83.6031 151° Southeast 292 336 9,300 -1,258 Descending Cleveland Center
Sat 01:50:53 PM 42.6119 -83.5733 125° Southeast 291 335 8,800 -1,343 Descending Cleveland Center
Sat 01:51:29 PM 42.5761 -83.5133 129° Southeast 278 320 7,800 -1,452 Descending Cleveland Center
Sat 01:51:55 PM 42.5553 -83.4736 125° Southeast 278 320 7,300 -982 Descending Cleveland Center
Sat 01:52:24 PM 42.5358 -83.4394 128° Southeast 246 283 6,900 -677 Descending Cleveland Center
Sat 01:52:57 PM 42.5169 -83.3975 121° Southeast 252 290 6,600 -885 Descending Cleveland Center
Sat 01:53:25 PM 42.5067 -83.3558 108° East 224 258 6,000 -581 Descending Cleveland Center
Sat 01:53:59 PM 42.4975 -83.3158 107° East 230 265 6,000 -618 Level Cleveland Center
Sat 01:54:33 PM 42.4819 -83.2675 114° Southeast 229 264 5,300 -1,161 Descending Cleveland Center
Sat 01:55:01 PM 42.4625 -83.2517 149° Southeast 222 255 4,800 -1,418 Descending Cleveland Center
Sat 01:55:28 PM 42.4289 -83.2489 177° South 209 241 4,000 -774 Descending Cleveland Center
Sat 01:56:03 PM 42.4050 -83.2478 178° South 211 243 4,000 -90 Level Cleveland Center
Sat 01:56:35 PM 42.3739 -83.2581 194° South 174 200 3,900 -393 Descending Cleveland Center
Sat 01:57:04 PM 42.3600 -83.2667 205° Southwest 183 211 3,600 -857 Descending Cleveland Center
Sat 01:57:31 PM 42.3339 -83.2864 209° Southwest 173 199 3,100 -871 Descending Cleveland Center
Sat 01:58:06 PM 42.3175 -83.2992 210° Southwest 175 201 2,700 -787 Descending Cleveland Center
Sat 01:58:32 PM 42.2942 -83.3119 202° Southwest 141 162 2,300 -774 Descending Cleveland Center
Sat 01:59:08 PM 42.2786 -83.3175 195° South 156 180 1,900 -885 Descending Cleveland Center
Sat 01:59:33 PM 42.2569 -83.3319 206° Southwest 126 145 1,400 -774 Descending Cleveland Center
Sat 02:00:10 PM 42.2447 -83.3386 202° Southwest 140 161 1,100 -486 Descending Cleveland Center

Login

Don't have an account? Register now (free) for customized features, flight alerts, and more!